Time;durP1;ratioP1;P1;durP2;ratioP2;P2;SDS_P1;SDS_P2;PMS_P1;PMS_P2;Temp;Humidity;BMP_temperature;BMP_pressure;BME280_temperature;BME280_humidity;BME280_pressure;Samples;Min_cycle;Max_cycle;Signal;HPM_P1;HPM_P2
2023/09/09 00:00:52;;;;;;;24.08;21.35;;;;;;;;;;2075162;28;20189;-58
2023/09/09 00:01:53;;;;;;;29.60;22.35;;;;;;;;;;2075224;28;20121;-57
2023/09/09 00:02:54;;;;;;;22.98;19.70;;;;;;;;;;2075271;28;20029;-57
2023/09/09 00:03:56;;;;;;;27.80;20.70;;;;;;;;;;2075403;28;20038;-52
2023/09/09 00:04:56;;;;;;;23.80;20.88;;;;;;;;;;2075427;28;20065;-52
2023/09/09 00:05:57;;;;;;;25.40;21.52;;;;;;;;;;2074653;28;20080;-53
2023/09/09 00:07:02;;;;;;;25.13;20.70;;;;;;;;;;2075389;28;20053;-52
2023/09/09 00:08:03;;;;;;;25.35;20.88;;;;;;;;;;2075527;28;20034;-53
2023/09/09 00:09:05;;;;;;;22.13;19.83;;;;;;;;;;2075342;28;20370;-52
2023/09/09 00:10:06;;;;;;;22.35;19.60;;;;;;;;;;2075418;28;20045;-52
2023/09/09 00:11:06;;;;;;;21.98;19.25;;;;;;;;;;2075197;28;20064;-53
2023/09/09 00:12:07;;;;;;;22.95;19.50;;;;;;;;;;2075213;28;20037;-52
2023/09/09 00:13:09;;;;;;;25.38;20.17;;;;;;;;;;2075142;28;20132;-53
2023/09/09 00:14:09;;;;;;;24.08;21.02;;;;;;;;;;2075099;28;20125;-52
2023/09/09 00:15:10;;;;;;;24.33;21.08;;;;;;;;;;2075202;28;20050;-52
2023/09/09 00:16:11;;;;;;;25.38;20.83;;;;;;;;;;2075210;28;20109;-53
2023/09/09 00:17:12;;;;;;;23.95;21.40;;;;;;;;;;2074671;28;20061;-53
2023/09/09 00:18:13;;;;;;;25.05;22.02;;;;;;;;;;2073998;28;20053;-53
2023/09/09 00:19:13;;;;;;;26.58;21.85;;;;;;;;;;2073425;28;20046;-52
2023/09/09 00:20:14;;;;;;;23.35;20.85;;;;;;;;;;2074703;28;20577;-52
2023/09/09 00:21:15;;;;;;;23.33;20.80;;;;;;;;;;2074801;28;20038;-52
2023/09/09 00:22:17;;;;;;;26.67;21.40;;;;;;;;;;2075333;28;20041;-53
2023/09/09 00:23:17;;;;;;;26.65;20.98;;;;;;;;;;2074328;28;20497;-52
2023/09/09 00:24:18;;;;;;;26.00;21.85;;;;;;;;;;2074558;28;20134;-53
2023/09/09 00:25:19;;;;;;;25.77;20.15;;;;;;;;;;2075113;28;20029;-52
2023/09/09 00:26:19;;;;;;;28.00;21.90;;;;;;;;;;2075058;28;20087;-52
2023/09/09 00:27:20;;;;;;;27.42;20.23;;;;;;;;;;2075168;28;20084;-53
2023/09/09 00:28:23;;;;;;;24.15;21.38;;;;;;;;;;2075100;28;20389;-52
2023/09/09 00:29:23;;;;;;;26.77;20.98;;;;;;;;;;2074485;28;20045;-53
2023/09/09 00:30:24;;;;;;;22.95;19.40;;;;;;;;;;2073980;28;20073;-52
2023/09/09 00:31:25;;;;;;;22.25;19.85;;;;;;;;;;2074921;28;20465;-53
2023/09/09 00:32:25;;;;;;;24.13;19.95;;;;;;;;;;2074070;28;20057;-52
2023/09/09 00:33:26;;;;;;;25.27;21.35;;;;;;;;;;2075358;28;20054;-53
2023/09/09 00:34:27;;;;;;;25.70;20.35;;;;;;;;;;2075284;28;20053;-52
2023/09/09 00:35:28;;;;;;;26.20;21.42;;;;;;;;;;2075017;28;20130;-52
2023/09/09 00:36:28;;;;;;;25.55;21.08;;;;;;;;;;2075039;28;20049;-53
2023/09/09 00:37:29;;;;;;;24.63;21.25;;;;;;;;;;2074186;28;20050;-53
2023/09/09 00:38:30;;;;;;;23.92;20.95;;;;;;;;;;2074385;28;20057;-52
2023/09/09 00:39:31;;;;;;;26.90;22.67;;;;;;;;;;2074412;28;20509;-53
2023/09/09 00:40:32;;;;;;;25.33;21.10;;;;;;;;;;2066000;28;20053;-52
2023/09/09 00:41:32;;;;;;;24.88;21.52;;;;;;;;;;2074232;28;20452;-52
2023/09/09 00:42:33;;;;;;;24.80;21.08;;;;;;;;;;2074695;28;20045;-52
2023/09/09 00:43:37;;;;;;;26.05;21.02;;;;;;;;;;2074265;28;20392;-52
2023/09/09 00:44:38;;;;;;;23.33;20.65;;;;;;;;;;2074336;28;20025;-53
2023/09/09 00:45:39;;;;;;;25.38;21.80;;;;;;;;;;2075145;28;20385;-53
2023/09/09 00:46:39;;;;;;;24.20;20.83;;;;;;;;;;2074117;28;20477;-54
2023/09/09 00:47:40;;;;;;;25.75;21.65;;;;;;;;;;2074229;28;20044;-53
2023/09/09 00:48:41;;;;;;;28.08;21.73;;;;;;;;;;2074963;28;20046;-53
2023/09/09 00:49:42;;;;;;;25.60;21.75;;;;;;;;;;2075235;28;20057;-53
2023/09/09 00:50:45;;;;;;;26.35;20.83;;;;;;;;;;2074531;28;20049;-53
2023/09/09 00:51:45;;;;;;;29.15;22.83;;;;;;;;;;2064989;28;20517;-52
2023/09/09 00:52:47;;;;;;;28.83;24.40;;;;;;;;;;2057936;28;20053;-53
2023/09/09 00:53:47;;;;;;;27.92;23.80;;;;;;;;;;2074364;28;20381;-53
2023/09/09 00:54:48;;;;;;;25.73;22.17;;;;;;;;;;2074782;28;20049;-52
2023/09/09 00:55:49;;;;;;;26.98;22.25;;;;;;;;;;2074920;28;20041;-52
2023/09/09 00:56:50;;;;;;;23.30;20.73;;;;;;;;;;2074107;28;20034;-52
2023/09/09 00:57:51;;;;;;;24.95;21.98;;;;;;;;;;2065681;28;20049;-52
2023/09/09 00:58:52;;;;;;;24.25;21.65;;;;;;;;;;2074376;28;20080;-52
2023/09/09 00:59:52;;;;;;;25.58;21.67;;;;;;;;;;2074865;28;20095;-52
2023/09/09 01:00:53;;;;;;;27.73;22.27;;;;;;;;;;2074946;28;20091;-52
2023/09/09 01:01:56;;;;;;;25.45;21.65;;;;;;;;;;2075235;28;20042;-52
2023/09/09 01:02:57;;;;;;;27.35;21.23;;;;;;;;;;2074426;28;20046;-53
2023/09/09 01:03:58;;;;;;;24.38;20.05;;;;;;;;;;2073595;28;20072;-52
2023/09/09 01:04:59;;;;;;;22.50;20.00;;;;;;;;;;2075137;28;20465;-52
2023/09/09 01:06:01;;;;;;;25.27;21.00;;;;;;;;;;2065709;28;20085;-52
2023/09/09 01:07:01;;;;;;;27.65;21.10;;;;;;;;;;2066095;28;20030;-53
2023/09/09 01:08:02;;;;;;;24.67;20.80;;;;;;;;;;2074120;28;20473;-53
2023/09/09 01:09:04;;;;;;;24.70;19.77;;;;;;;;;;2065995;28;20042;-53
2023/09/09 01:10:05;;;;;;;25.13;20.38;;;;;;;;;;2073838;28;20096;-52
2023/09/09 01:11:06;;;;;;;24.42;20.88;;;;;;;;;;2074907;28;20038;-52
2023/09/09 01:12:11;;;;;;;25.00;19.90;;;;;;;;;;2074704;28;20030;-52
2023/09/09 01:13:12;;;;;;;23.65;20.92;;;;;;;;;;2073788;28;20048;-52
2023/09/09 01:14:13;;;;;;;25.75;20.30;;;;;;;;;;2066896;28;20077;-53
2023/09/09 01:15:13;;;;;;;22.88;20.35;;;;;;;;;;2074207;28;20137;-52
2023/09/09 01:16:15;;;;;;;28.80;21.63;;;;;;;;;;2073769;28;20060;-52
2023/09/09 01:17:16;;;;;;;25.35;20.58;;;;;;;;;;2065144;28;20528;-52
2023/09/09 01:18:17;;;;;;;25.30;19.73;;;;;;;;;;2057911;28;20046;-52
2023/09/09 01:19:18;;;;;;;25.58;20.17;;;;;;;;;;2065738;28;20480;-52
2023/09/09 01:20:20;;;;;;;23.48;20.02;;;;;;;;;;2073563;28;20486;-52
2023/09/09 01:21:21;;;;;;;24.02;20.58;;;;;;;;;;2074598;28;20041;-53
2023/09/09 01:22:22;;;;;;;22.45;19.33;;;;;;;;;;2074759;28;20057;-52
2023/09/09 01:23:23;;;;;;;22.42;19.38;;;;;;;;;;2074100;28;20061;-53
2023/09/09 01:24:23;;;;;;;23.20;20.10;;;;;;;;;;2065790;28;20498;-53
2023/09/09 01:25:24;;;;;;;23.52;20.33;;;;;;;;;;2057506;28;20054;-53
2023/09/09 01:26:25;;;;;;;22.33;19.13;;;;;;;;;;2065932;28;20050;-53
2023/09/09 01:27:26;;;;;;;25.25;20.33;;;;;;;;;;2074730;28;20050;-53
2023/09/09 01:28:26;;;;;;;23.45;20.52;;;;;;;;;;2074041;28;20053;-52
2023/09/09 01:29:27;;;;;;;24.77;20.38;;;;;;;;;;2074285;28;20491;-53
2023/09/09 01:30:28;;;;;;;27.58;20.70;;;;;;;;;;2074546;28;20374;-52
2023/09/09 01:31:28;;;;;;;21.67;19.38;;;;;;;;;;2065196;28;20049;-52
2023/09/09 01:32:29;;;;;;;23.73;21.20;;;;;;;;;;2065765;28;20050;-52
2023/09/09 01:33:30;;;;;;;24.20;20.80;;;;;;;;;;2073992;28;20079;-53
2023/09/09 01:34:31;;;;;;;25.65;21.42;;;;;;;;;;2065808;28;20050;-53
2023/09/09 01:35:31;;;;;;;25.00;20.33;;;;;;;;;;2066340;28;20039;-52
2023/09/09 01:36:32;;;;;;;27.17;22.92;;;;;;;;;;2066079;28;20045;-52
2023/09/09 01:37:33;;;;;;;26.65;20.90;;;;;;;;;;2065793;28;20073;-53
2023/09/09 01:38:35;;;;;;;27.05;21.63;;;;;;;;;;2065856;28;20045;-53
2023/09/09 01:39:36;;;;;;;29.92;24.23;;;;;;;;;;2065655;28;20046;-52
2023/09/09 01:40:36;;;;;;;29.15;24.55;;;;;;;;;;2065777;28;20482;-52
2023/09/09 01:41:37;;;;;;;26.88;23.50;;;;;;;;;;2074079;28;20041;-52
2023/09/09 01:42:38;;;;;;;29.33;24.65;;;;;;;;;;2074464;28;20046;-53
2023/09/09 01:43:39;;;;;;;28.42;25.00;;;;;;;;;;2073428;28;20103;-53
2023/09/09 01:44:39;;;;;;;29.90;24.73;;;;;;;;;;2065441;28;20049;-53
2023/09/09 01:45:40;;;;;;;26.92;20.77;;;;;;;;;;2073620;28;20037;-52
2023/09/09 01:46:41;;;;;;;27.52;23.92;;;;;;;;;;2074315;28;20034;-53
2023/09/09 01:47:42;;;;;;;26.83;22.60;;;;;;;;;;2074596;28;20050;-52
2023/09/09 01:48:43;;;;;;;28.08;20.70;;;;;;;;;;2073567;28;20050;-52
2023/09/09 01:49:44;;;;;;;25.00;22.10;;;;;;;;;;2074167;28;20034;-53
2023/09/09 01:50:45;;;;;;;27.88;23.52;;;;;;;;;;2074113;28;20379;-53
2023/09/09 01:51:46;;;;;;;26.38;23.55;;;;;;;;;;2065825;28;20045;-53
2023/09/09 01:52:47;;;;;;;24.52;21.30;;;;;;;;;;2065650;28;20094;-53
2023/09/09 01:53:47;;;;;;;26.70;22.58;;;;;;;;;;2074230;28;20049;-53
2023/09/09 01:54:48;;;;;;;26.13;22.80;;;;;;;;;;2074487;28;20033;-53
2023/09/09 01:55:50;;;;;;;27.40;23.17;;;;;;;;;;2073455;28;20041;-52
2023/09/09 01:56:51;;;;;;;26.60;22.88;;;;;;;;;;2066135;28;20034;-53
2023/09/09 01:57:52;;;;;;;28.48;23.15;;;;;;;;;;2065497;28;20038;-53
2023/09/09 01:58:53;;;;;;;32.22;25.15;;;;;;;;;;2065757;28;20069;-52
2023/09/09 01:59:54;;;;;;;30.63;26.00;;;;;;;;;;2065691;28;20046;-53
2023/09/09 02:00:54;;;;;;;28.67;25.58;;;;;;;;;;2065659;28;20462;-52
2023/09/09 02:01:55;;;;;;;27.92;24.00;;;;;;;;;;2073570;28;20508;-53
2023/09/09 02:02:56;;;;;;;28.13;24.45;;;;;;;;;;2074351;28;20088;-52
2023/09/09 02:03:57;;;;;;;26.27;23.50;;;;;;;;;;2073757;28;20046;-52
2023/09/09 02:04:58;;;;;;;28.77;22.95;;;;;;;;;;2074328;28;20060;-52
2023/09/09 02:05:58;;;;;;;27.83;21.98;;;;;;;;;;2074369;28;20041;-53
2023/09/09 02:06:59;;;;;;;24.35;21.73;;;;;;;;;;2073800;28;20034;-53
2023/09/09 02:08:00;;;;;;;24.33;21.67;;;;;;;;;;2074319;28;20037;-52
2023/09/09 02:09:01;;;;;;;25.15;21.58;;;;;;;;;;2074362;28;20034;-52
2023/09/09 02:10:03;;;;;;;26.02;23.20;;;;;;;;;;2074363;28;20046;-53
2023/09/09 02:11:04;;;;;;;25.23;20.27;;;;;;;;;;2073928;28;20046;-52
2023/09/09 02:12:04;;;;;;;22.60;20.08;;;;;;;;;;2074413;28;20394;-53
2023/09/09 02:13:07;;;;;;;22.00;18.65;;;;;;;;;;2072928;28;20050;-53
2023/09/09 02:14:08;;;;;;;23.48;19.45;;;;;;;;;;2065564;28;20042;-53
2023/09/09 02:15:10;;;;;;;26.92;20.23;;;;;;;;;;2065247;28;20050;-54
2023/09/09 02:16:10;;;;;;;26.95;23.30;;;;;;;;;;2065089;28;20050;-53
2023/09/09 02:17:12;;;;;;;27.48;23.08;;;;;;;;;;2073218;28;20123;-53
2023/09/09 02:18:13;;;;;;;24.98;22.30;;;;;;;;;;2074219;28;20038;-52
2023/09/09 02:19:14;;;;;;;26.00;22.50;;;;;;;;;;2074268;28;20501;-52
2023/09/09 02:20:15;;;;;;;28.92;22.58;;;;;;;;;;2074299;28;20045;-52
2023/09/09 02:21:16;;;;;;;27.08;22.02;;;;;;;;;;2073619;28;20493;-53
2023/09/09 02:22:16;;;;;;;25.65;22.15;;;;;;;;;;2064904;28;20046;-52
2023/09/09 02:23:17;;;;;;;26.95;22.52;;;;;;;;;;2073620;28;20053;-53
2023/09/09 02:24:18;;;;;;;25.35;20.88;;;;;;;;;;2074205;28;20057;-53
2023/09/09 02:25:19;;;;;;;24.67;21.73;;;;;;;;;;2073542;28;20124;-53
2023/09/09 02:26:19;;;;;;;26.27;23.10;;;;;;;;;;2065737;28;20081;-52
2023/09/09 02:27:20;;;;;;;26.50;22.13;;;;;;;;;;2073475;28;20077;-53
2023/09/09 02:28:21;;;;;;;27.80;23.50;;;;;;;;;;2073172;28;20101;-53
2023/09/09 02:29:22;;;;;;;30.40;23.88;;;;;;;;;;2073330;28;20041;-52
2023/09/09 02:30:23;;;;;;;28.65;23.70;;;;;;;;;;2074347;28;20038;-53
2023/09/09 02:31:24;;;;;;;28.17;23.45;;;;;;;;;;2073302;28;20042;-52
2023/09/09 02:32:25;;;;;;;26.42;23.60;;;;;;;;;;2065560;28;20049;-53
2023/09/09 02:33:25;;;;;;;26.13;22.10;;;;;;;;;;2073500;28;20033;-53
2023/09/09 02:34:26;;;;;;;22.17;19.77;;;;;;;;;;2073534;28;20079;-53
2023/09/09 02:35:27;;;;;;;25.45;22.20;;;;;;;;;;2065718;28;20532;-53
2023/09/09 02:36:28;;;;;;;26.13;21.67;;;;;;;;;;2065038;28;20046;-53
2023/09/09 02:37:29;;;;;;;26.23;21.20;;;;;;;;;;2065347;28;20051;-52
2023/09/09 02:38:29;;;;;;;24.17;21.58;;;;;;;;;;2065660;28;20042;-52
2023/09/09 02:39:30;;;;;;;23.45;20.50;;;;;;;;;;2065552;28;20046;-52
2023/09/09 02:40:31;;;;;;;25.88;20.45;;;;;;;;;;2073161;28;20037;-53
2023/09/09 02:41:32;;;;;;;24.90;20.73;;;;;;;;;;2065125;28;20057;-53
2023/09/09 02:42:32;;;;;;;25.20;21.95;;;;;;;;;;2073486;28;20034;-53
2023/09/09 02:43:33;;;;;;;26.73;21.42;;;;;;;;;;2074151;28;20102;-54
2023/09/09 02:44:34;;;;;;;29.25;23.15;;;;;;;;;;2073642;28;20042;-53
2023/09/09 02:45:36;;;;;;;37.22;24.88;;;;;;;;;;2065184;28;20057;-53
2023/09/09 02:46:36;;;;;;;28.30;23.55;;;;;;;;;;2073441;28;20437;-53
2023/09/09 02:47:37;;;;;;;27.35;23.35;;;;;;;;;;2073046;28;20065;-52
2023/09/09 02:48:38;;;;;;;28.20;23.13;;;;;;;;;;2073374;28;20124;-53
2023/09/09 02:49:39;;;;;;;22.85;20.25;;;;;;;;;;2073426;28;20036;-53
2023/09/09 02:50:40;;;;;;;24.40;21.63;;;;;;;;;;2074056;28;20042;-52
2023/09/09 02:51:40;;;;;;;23.27;20.77;;;;;;;;;;2074096;28;20069;-52
2023/09/09 02:52:41;;;;;;;23.95;21.05;;;;;;;;;;2073958;28;20121;-52
2023/09/09 02:53:42;;;;;;;26.42;22.38;;;;;;;;;;2073204;28;20038;-53
2023/09/09 02:54:43;;;;;;;25.15;21.42;;;;;;;;;;2064558;28;20043;-52
2023/09/09 02:55:43;;;;;;;24.52;20.45;;;;;;;;;;2072815;28;20050;-53
2023/09/09 02:56:45;;;;;;;24.73;21.63;;;;;;;;;;2073380;28;20038;-53
2023/09/09 02:57:49;;;;;;;27.77;22.70;;;;;;;;;;2073655;28;20034;-54
2023/09/09 02:58:49;;;;;;;25.63;22.42;;;;;;;;;;2073310;28;20037;-52
2023/09/09 02:59:50;;;;;;;27.58;21.65;;;;;;;;;;2065523;28;20038;-52
2023/09/09 03:00:51;;;;;;;28.80;22.15;;;;;;;;;;2065327;28;20406;-52
2023/09/09 03:01:52;;;;;;;23.65;20.50;;;;;;;;;;2065205;28;20049;-52
2023/09/09 03:02:53;;;;;;;24.60;20.27;;;;;;;;;;2064900;28;20050;-52
2023/09/09 03:03:53;;;;;;;25.13;20.75;;;;;;;;;;2073462;28;20401;-52
2023/09/09 03:04:54;;;;;;;24.77;21.38;;;;;;;;;;2073314;28;20520;-52
2023/09/09 03:05:55;;;;;;;24.63;21.50;;;;;;;;;;2064824;28;20046;-52
2023/09/09 03:06:56;;;;;;;23.88;20.77;;;;;;;;;;2073428;28;20038;-51
2023/09/09 03:07:57;;;;;;;23.20;19.98;;;;;;;;;;2072998;28;20041;-52
2023/09/09 03:08:58;;;;;;;27.25;20.17;;;;;;;;;;2073017;28;20437;-55
2023/09/09 03:09:59;;;;;;;26.10;21.02;;;;;;;;;;2074031;28;20040;-51
2023/09/09 03:10:59;;;;;;;21.05;18.80;;;;;;;;;;2073830;28;20030;-52
2023/09/09 03:12:02;;;;;;;22.48;19.33;;;;;;;;;;2074198;28;20037;-54
2023/09/09 03:13:03;;;;;;;20.48;18.27;;;;;;;;;;2073274;28;20068;-51
2023/09/09 03:14:04;;;;;;;23.70;19.98;;;;;;;;;;2072532;28;20129;-53
2023/09/09 03:15:05;;;;;;;22.17;19.77;;;;;;;;;;2073310;28;20084;-52
2023/09/09 03:16:06;;;;;;;22.60;19.05;;;;;;;;;;2065220;28;20050;-53
2023/09/09 03:17:07;;;;;;;22.42;18.80;;;;;;;;;;2072649;28;20078;-52
2023/09/09 03:18:08;;;;;;;22.67;18.73;;;;;;;;;;2073296;28;20065;-52
2023/09/09 03:19:08;;;;;;;21.10;18.80;;;;;;;;;;2072750;28;20046;-52
2023/09/09 03:20:10;;;;;;;22.35;19.60;;;;;;;;;;2064771;28;20177;-53
2023/09/09 03:21:10;;;;;;;23.58;20.50;;;;;;;;;;2065043;28;20049;-52
2023/09/09 03:22:11;;;;;;;23.08;20.58;;;;;;;;;;2073601;28;20038;-52
2023/09/09 03:23:12;;;;;;;23.80;21.10;;;;;;;;;;2073730;28;20041;-52
2023/09/09 03:24:12;;;;;;;22.90;20.42;;;;;;;;;;2072746;28;20400;-53
2023/09/09 03:25:13;;;;;;;23.40;20.90;;;;;;;;;;2064870;28;20042;-52
2023/09/09 03:26:18;;;;;;;26.27;22.65;;;;;;;;;;2064758;28;20086;-53
2023/09/09 03:27:21;;;;;;;24.20;21.60;;;;;;;;;;2065387;28;20085;-52
2023/09/09 03:28:21;;;;;;;28.42;22.35;;;;;;;;;;2072671;28;20061;-53
2023/09/09 03:29:22;;;;;;;26.08;23.00;;;;;;;;;;2073590;28;20432;-52
2023/09/09 03:30:23;;;;;;;27.35;22.23;;;;;;;;;;2073881;28;20494;-53
2023/09/09 03:31:24;;;;;;;26.20;21.63;;;;;;;;;;2072947;28;20493;-53
2023/09/09 03:32:25;;;;;;;27.75;23.13;;;;;;;;;;2065151;28;20433;-52
2023/09/09 03:33:31;;;;;;;29.13;24.02;;;;;;;;;;2072948;28;20410;-52
2023/09/09 03:34:31;;;;;;;27.80;24.05;;;;;;;;;;2080669;28;20048;-51
2023/09/09 03:35:33;;;;;;;26.55;23.60;;;;;;;;;;2073223;28;20524;-52
2023/09/09 03:36:34;;;;;;;26.60;23.10;;;;;;;;;;2064748;28;20054;-52
2023/09/09 03:37:34;;;;;;;27.83;24.20;;;;;;;;;;2064804;28;20043;-53
2023/09/09 03:38:35;;;;;;;30.15;24.60;;;;;;;;;;2065061;28;20050;-51
2023/09/09 03:39:36;;;;;;;28.10;23.17;;;;;;;;;;2064751;28;20085;-52
2023/09/09 03:40:37;;;;;;;29.48;24.80;;;;;;;;;;2064658;28;20418;-53
2023/09/09 03:41:38;;;;;;;28.45;24.92;;;;;;;;;;2072440;28;20050;-52
2023/09/09 03:42:39;;;;;;;28.27;24.25;;;;;;;;;;2064481;28;20042;-52
2023/09/09 03:43:39;;;;;;;27.08;22.90;;;;;;;;;;2072860;28;20072;-52
2023/09/09 03:44:40;;;;;;;28.40;24.55;;;;;;;;;;2072893;28;20089;-53
2023/09/09 03:45:41;;;;;;;29.08;23.23;;;;;;;;;;2072953;28;20072;-52
2023/09/09 03:46:42;;;;;;;25.67;22.45;;;;;;;;;;2064336;28;20339;-52
2023/09/09 03:47:43;;;;;;;25.88;22.40;;;;;;;;;;2065315;28;20085;-52
2023/09/09 03:48:43;;;;;;;26.20;23.17;;;;;;;;;;2074191;28;20038;-52
2023/09/09 03:49:44;;;;;;;25.90;21.42;;;;;;;;;;2073756;28;20077;-53
2023/09/09 03:50:45;;;;;;;25.88;22.60;;;;;;;;;;2073210;28;20044;-53
2023/09/09 03:51:46;;;;;;;30.67;24.88;;;;;;;;;;2072684;28;20077;-52
2023/09/09 03:52:46;;;;;;;27.38;23.63;;;;;;;;;;2073706;28;20044;-52
2023/09/09 03:53:47;;;;;;;30.77;25.38;;;;;;;;;;2073111;28;20049;-52
2023/09/09 03:54:48;;;;;;;30.50;25.90;;;;;;;;;;2073330;28;20117;-52
2023/09/09 03:55:49;;;;;;;31.42;23.65;;;;;;;;;;2073578;28;20049;-52
2023/09/09 03:56:50;;;;;;;29.48;25.92;;;;;;;;;;2072800;28;20049;-52
2023/09/09 03:57:51;;;;;;;31.25;25.92;;;;;;;;;;2064876;28;20517;-52
2023/09/09 03:58:53;;;;;;;29.30;24.30;;;;;;;;;;2064666;28;20489;-53
2023/09/09 03:59:54;;;;;;;26.40;23.25;;;;;;;;;;2072999;28;20092;-52
2023/09/09 04:01:02;;;;;;;27.35;24.45;;;;;;;;;;2080687;28;20060;-53
2023/09/09 04:02:02;;;;;;;33.72;27.63;;;;;;;;;;2073845;28;20045;-52
2023/09/09 04:03:03;;;;;;;32.63;27.10;;;;;;;;;;2073201;28;20053;-52
2023/09/09 04:04:04;;;;;;;29.88;24.38;;;;;;;;;;2064307;28;20105;-52
2023/09/09 04:05:06;;;;;;;30.77;25.83;;;;;;;;;;2064666;28;20130;-52
2023/09/09 04:06:10;;;;;;;28.60;25.48;;;;;;;;;;2072754;28;20042;-52
2023/09/09 04:07:12;;;;;;;37.20;28.60;;;;;;;;;;2073219;28;20053;-52
2023/09/09 04:08:13;;;;;;;29.58;24.85;;;;;;;;;;2072919;28;20084;-52
2023/09/09 04:09:22;;;;;;;27.13;24.15;;;;;;;;;;2073723;28;20053;-53
2023/09/09 04:10:22;;;;;;;29.30;25.02;;;;;;;;;;2073025;28;20042;-53
2023/09/09 04:11:23;;;;;;;30.95;26.95;;;;;;;;;;2072717;28;20042;-52
2023/09/09 04:12:24;;;;;;;31.33;26.50;;;;;;;;;;2073800;28;20057;-52
2023/09/09 04:13:24;;;;;;;31.48;27.08;;;;;;;;;;2073712;28;20065;-53
2023/09/09 04:14:25;;;;;;;32.47;27.00;;;;;;;;;;2073506;28;20042;-52
2023/09/09 04:15:26;;;;;;;35.28;28.77;;;;;;;;;;2072701;28;20133;-53
2023/09/09 04:16:27;;;;;;;30.58;26.38;;;;;;;;;;2072961;28;20382;-53
2023/09/09 04:17:27;;;;;;;30.30;27.00;;;;;;;;;;2072476;28;20141;-52
2023/09/09 04:18:28;;;;;;;29.25;26.08;;;;;;;;;;2072649;28;20065;-52
2023/09/09 04:19:29;;;;;;;30.70;26.00;;;;;;;;;;2072772;28;20050;-52
2023/09/09 04:20:30;;;;;;;32.35;27.00;;;;;;;;;;2072976;28;20397;-52
2023/09/09 04:21:30;;;;;;;30.63;27.00;;;;;;;;;;2073222;28;20481;-52
2023/09/09 04:22:31;;;;;;;32.30;26.80;;;;;;;;;;2073001;28;20034;-52
2023/09/09 04:23:32;;;;;;;34.05;29.10;;;;;;;;;;2064778;28;20144;-52
2023/09/09 04:24:33;;;;;;;33.58;27.80;;;;;;;;;;2064897;28;20458;-52
2023/09/09 04:25:33;;;;;;;33.47;27.20;;;;;;;;;;2064808;28;20486;-52
2023/09/09 04:26:35;;;;;;;34.38;27.50;;;;;;;;;;2064944;28;20045;-52
2023/09/09 04:27:35;;;;;;;30.55;27.20;;;;;;;;;;2056683;28;20055;-52
2023/09/09 04:28:36;;;;;;;31.88;27.25;;;;;;;;;;2057176;28;20394;-52
2023/09/09 04:29:37;;;;;;;31.63;26.92;;;;;;;;;;2065137;28;20050;-52
2023/09/09 04:30:41;;;;;;;30.80;25.25;;;;;;;;;;2074626;28;20048;-52
2023/09/09 04:31:43;;;;;;;28.20;25.02;;;;;;;;;;2074103;28;20383;-52
2023/09/09 04:32:43;;;;;;;29.27;24.80;;;;;;;;;;2066387;28;20437;-52
2023/09/09 04:33:44;;;;;;;25.63;22.80;;;;;;;;;;2066229;28;20072;-52
2023/09/09 04:34:45;;;;;;;26.40;23.58;;;;;;;;;;2074392;28;20073;-52
2023/09/09 04:35:46;;;;;;;27.63;23.98;;;;;;;;;;2075082;28;20052;-52
2023/09/09 04:36:47;;;;;;;26.02;23.02;;;;;;;;;;2074456;28;20045;-52
2023/09/09 04:37:51;;;;;;;27.98;22.90;;;;;;;;;;2066326;28;20038;-52
2023/09/09 04:38:52;;;;;;;26.88;24.00;;;;;;;;;;2066355;28;20038;-51
2023/09/09 04:39:53;;;;;;;27.63;22.25;;;;;;;;;;2073562;28;20081;-52
2023/09/09 04:40:54;;;;;;;27.50;23.42;;;;;;;;;;2075066;28;20026;-52
2023/09/09 04:41:54;;;;;;;26.30;23.25;;;;;;;;;;2075036;28;20041;-52
2023/09/09 04:42:55;;;;;;;26.27;21.98;;;;;;;;;;2075038;28;20394;-52
2023/09/09 04:43:56;;;;;;;25.05;21.70;;;;;;;;;;2074986;28;20084;-53
2023/09/09 04:44:56;;;;;;;29.75;22.80;;;;;;;;;;2074987;28;20478;-52
2023/09/09 04:45:57;;;;;;;25.98;21.73;;;;;;;;;;2074199;28;20137;-53
2023/09/09 04:46:58;;;;;;;25.88;21.35;;;;;;;;;;2065831;28;20057;-52
2023/09/09 04:47:59;;;;;;;23.55;20.90;;;;;;;;;;2066269;28;20085;-53
2023/09/09 04:49:00;;;;;;;25.77;21.75;;;;;;;;;;2066518;28;20490;-52
2023/09/09 04:50:00;;;;;;;25.67;21.67;;;;;;;;;;2074513;28;20042;-53
2023/09/09 04:51:01;;;;;;;24.02;20.50;;;;;;;;;;2073992;28;20141;-53
2023/09/09 04:52:02;;;;;;;25.60;21.13;;;;;;;;;;2065825;28;20046;-52
2023/09/09 04:53:04;;;;;;;26.13;22.20;;;;;;;;;;2066131;28;20042;-52
2023/09/09 04:54:05;;;;;;;24.92;21.83;;;;;;;;;;2074222;28;20496;-52
2023/09/09 04:55:06;;;;;;;31.40;25.20;;;;;;;;;;2065590;28;20053;-52
2023/09/09 04:56:06;;;;;;;34.33;27.40;;;;;;;;;;2065635;28;20070;-52
2023/09/09 04:57:07;;;;;;;74.47;37.08;;;;;;;;;;2066152;28;20417;-52
2023/09/09 04:58:10;;;;;;;47.70;32.50;;;;;;;;;;2074066;28;20490;-54
2023/09/09 04:59:10;;;;;;;75.55;39.47;;;;;;;;;;2066519;28;20042;-53
2023/09/09 05:00:11;;;;;;;181.77;55.97;;;;;;;;;;2065687;28;20136;-52
2023/09/09 05:01:12;;;;;;;202.25;55.53;;;;;;;;;;2065928;28;20049;-52
2023/09/09 05:02:13;;;;;;;282.95;69.25;;;;;;;;;;2065794;28;20050;-53
2023/09/09 05:03:14;;;;;;;380.20;86.32;;;;;;;;;;2074226;28;20053;-53
2023/09/09 05:04:14;;;;;;;391.95;91.47;;;;;;;;;;2073890;28;20046;-53
2023/09/09 05:05:15;;;;;;;370.88;91.28;;;;;;;;;;2065837;28;20039;-53
2023/09/09 05:06:16;;;;;;;441.17;102.38;;;;;;;;;;2073820;28;20130;-52
2023/09/09 05:07:17;;;;;;;377.58;100.18;;;;;;;;;;2074093;28;20085;-52
2023/09/09 05:08:17;;;;;;;363.02;100.28;;;;;;;;;;2073985;28;20179;-52
2023/09/09 05:09:18;;;;;;;277.70;84.82;;;;;;;;;;2073998;28;20049;-53
2023/09/09 05:10:19;;;;;;;233.25;76.03;;;;;;;;;;2074392;28;20097;-53
2023/09/09 05:11:20;;;;;;;202.98;77.75;;;;;;;;;;2073880;28;20053;-53
2023/09/09 05:12:21;;;;;;;170.18;72.43;;;;;;;;;;2073782;28;20057;-53
2023/09/09 05:13:22;;;;;;;133.80;64.47;;;;;;;;;;2073590;28;20050;-53
2023/09/09 05:14:23;;;;;;;156.48;71.47;;;;;;;;;;2074075;28;20151;-54
2023/09/09 05:15:23;;;;;;;138.02;68.72;;;;;;;;;;2065539;28;20153;-54
2023/09/09 05:16:24;;;;;;;215.75;73.30;;;;;;;;;;2073446;28;20201;-53
2023/09/09 05:17:25;;;;;;;414.02;96.68;;;;;;;;;;2073083;28;20050;-53
2023/09/09 05:18:26;;;;;;;228.63;75.97;;;;;;;;;;2065649;28;20050;-53
2023/09/09 05:19:27;;;;;;;110.03;65.97;;;;;;;;;;2065729;28;20057;-53
2023/09/09 05:20:28;;;;;;;69.20;48.20;;;;;;;;;;2065652;28;20076;-53
2023/09/09 05:21:28;;;;;;;69.80;50.42;;;;;;;;;;2065693;28;20038;-53
2023/09/09 05:22:29;;;;;;;72.03;52.13;;;;;;;;;;2074314;28;20492;-53
2023/09/09 05:23:30;;;;;;;58.45;45.33;;;;;;;;;;2073810;28;20536;-53
2023/09/09 05:24:31;;;;;;;61.67;46.47;;;;;;;;;;2073996;28;20033;-52
2023/09/09 05:25:31;;;;;;;52.45;42.92;;;;;;;;;;2073475;28;20065;-53
2023/09/09 05:26:32;;;;;;;46.53;37.17;;;;;;;;;;2074119;28;20449;-52
2023/09/09 05:27:33;;;;;;;41.40;34.13;;;;;;;;;;2073466;28;20038;-53
2023/09/09 05:28:34;;;;;;;36.05;30.88;;;;;;;;;;2073228;28;20052;-53
2023/09/09 05:29:34;;;;;;;32.50;28.48;;;;;;;;;;2073538;28;20128;-52
2023/09/09 05:30:38;;;;;;;28.20;23.92;;;;;;;;;;2065539;28;20067;-53
2023/09/09 05:31:39;;;;;;;25.83;22.35;;;;;;;;;;2074423;28;20037;-52
2023/09/09 05:32:40;;;;;;;24.23;21.73;;;;;;;;;;2065796;28;20038;-52
2023/09/09 05:33:40;;;;;;;21.85;19.55;;;;;;;;;;2074080;28;20022;-53
2023/09/09 05:34:41;;;;;;;23.10;20.60;;;;;;;;;;2073837;28;20065;-53
2023/09/09 05:35:43;;;;;;;24.25;21.17;;;;;;;;;;2073757;28;20046;-53
2023/09/09 05:36:44;;;;;;;23.55;20.73;;;;;;;;;;2073678;28;20461;-53
2023/09/09 05:37:45;;;;;;;24.13;21.48;;;;;;;;;;2074415;28;20037;-53
2023/09/09 05:38:46;;;;;;;26.55;22.17;;;;;;;;;;2073637;28;20037;-52
2023/09/09 05:39:47;;;;;;;24.58;21.80;;;;;;;;;;2073533;28;20046;-53
2023/09/09 05:40:47;;;;;;;25.23;21.73;;;;;;;;;;2073913;28;20034;-53
2023/09/09 05:41:48;;;;;;;26.00;21.92;;;;;;;;;;2064829;28;20038;-53
2023/09/09 05:42:49;;;;;;;24.25;21.65;;;;;;;;;;2065980;28;20113;-53
2023/09/09 05:43:50;;;;;;;21.42;18.67;;;;;;;;;;2074193;28;20042;-53
2023/09/09 05:44:51;;;;;;;21.33;19.10;;;;;;;;;;2065416;28;20042;-53
2023/09/09 05:45:51;;;;;;;21.92;19.52;;;;;;;;;;2073692;28;20493;-53
2023/09/09 05:46:52;;;;;;;23.00;20.23;;;;;;;;;;2073756;28;20038;-53
2023/09/09 05:47:53;;;;;;;21.95;19.38;;;;;;;;;;2074131;28;20042;-53
2023/09/09 05:48:54;;;;;;;22.30;20.00;;;;;;;;;;2073934;28;20069;-53
2023/09/09 05:49:54;;;;;;;21.90;19.60;;;;;;;;;;2074018;28;20038;-53
2023/09/09 05:50:55;;;;;;;25.92;20.52;;;;;;;;;;2073899;28;20038;-53
2023/09/09 05:51:56;;;;;;;23.13;20.63;;;;;;;;;;2065979;28;20034;-53
2023/09/09 05:52:57;;;;;;;29.33;22.85;;;;;;;;;;2066040;28;20046;-53
2023/09/09 05:54:00;;;;;;;29.45;24.92;;;;;;;;;;2065758;28;20489;-52
2023/09/09 05:55:01;;;;;;;27.35;23.92;;;;;;;;;;2065802;28;20038;-53